Time;durP1;ratioP1;P1;durP2;ratioP2;P2;SDS_P1;SDS_P2;PMS_P1;PMS_P2;Temp;Humidity;BMP_temperature;BMP_pressure;BME280_temperature;BME280_humidity;BME280_pressure;Samples;Min_cycle;Max_cycle;Signal;HPM_P1;HPM_P2
2023/06/17 00:01:53;;;;;;;23.20;21.00;;;;;;;14.38;80.86;96278.69;112192;1242;22489;-87
2023/06/17 00:04:22;;;;;;;23.60;21.30;;;;;;;14.34;81.07;96278.58;112177;1242;22500;-87
2023/06/17 00:06:55;;;;;;;23.10;20.90;;;;;;;14.35;81.25;96279.08;112177;1242;22485;-87
2023/06/17 00:09:25;;;;;;;21.40;19.30;;;;;;;14.35;81.27;96274.54;112200;1239;22503;-87
2023/06/17 00:11:57;;;;;;;22.20;20.20;;;;;;;14.37;81.28;96271.79;112223;1240;22480;-87
2023/06/17 00:14:30;;;;;;;23.20;21.00;;;;;;;14.37;81.16;96270.88;112226;1231;24390;-87
2023/06/17 00:17:00;;;;;;;21.90;19.80;;;;;;;14.37;81.18;96266.17;112201;1243;22512;-87
2023/06/17 00:19:32;;;;;;;25.40;20.70;;;;;;;14.41;81.25;96261.53;112209;1239;23353;-87
2023/06/17 00:22:05;;;;;;;22.20;20.00;;;;;;;14.44;80.92;96267.23;112157;1227;68404;-87
2023/06/17 00:24:40;;;;;;;21.20;19.20;;;;;;;14.45;80.81;96271.51;112244;1242;22579;-87
2023/06/17 00:27:11;;;;;;;21.30;19.40;;;;;;;14.47;80.75;96275.84;112193;1243;22625;-87
2023/06/17 00:29:41;;;;;;;21.80;19.60;;;;;;;14.49;80.67;96280.36;112189;1242;22515;-87
2023/06/17 00:32:13;;;;;;;21.10;19.10;;;;;;;14.51;80.69;96276.15;112151;1243;62046;-87
2023/06/17 00:34:44;;;;;;;19.80;17.90;;;;;;;14.48;80.41;96272.64;112209;1242;25327;-87
2023/06/17 00:37:15;;;;;;;21.30;19.20;;;;;;;14.42;80.29;96272.58;112178;1239;22522;-87
2023/06/17 00:39:43;;;;;;;20.80;18.90;;;;;;;14.36;80.25;96274.48;112213;1243;22490;-87
2023/06/17 00:42:12;;;;;;;19.80;17.90;;;;;;;14.34;80.46;96273.83;110823;1242;1803181;-87
2023/06/17 00:44:44;;;;;;;20.80;18.80;;;;;;;14.34;80.55;96270.41;112146;1242;22536;-87
2023/06/17 00:47:16;;;;;;;22.20;20.10;;;;;;;14.30;80.42;96274.11;112221;1237;22611;-87
2023/06/17 00:49:46;;;;;;;21.50;19.40;;;;;;;14.16;80.36;96275.45;112215;1240;25572;-87
2023/06/17 00:52:15;;;;;;;21.00;19.00;;;;;;;14.05;80.78;96272.42;112185;1243;41711;-87
2023/06/17 00:54:46;;;;;;;20.80;18.60;;;;;;;14.06;80.94;96273.21;112228;1242;24356;-87
2023/06/17 00:57:18;;;;;;;19.40;17.50;;;;;;;13.97;80.80;96270.42;112223;1242;22483;-87
2023/06/17 00:59:50;;;;;;;20.50;18.40;;;;;;;13.79;80.95;96267.02;112217;1242;25341;-87
2023/06/17 01:02:25;;;;;;;20.30;18.30;;;;;;;13.68;81.45;96267.08;112181;1242;46977;-87
2023/06/17 01:04:55;;;;;;;19.90;17.90;;;;;;;13.62;81.92;96267.28;112155;1242;22542;-87
2023/06/17 01:07:37;;;;;;;21.30;19.20;;;;;;;13.62;82.24;96266.69;112212;1242;22564;-86
2023/06/17 01:10:19;;;;;;;20.60;18.40;;;;;;;13.68;82.53;96264.91;112206;1242;22503;-87
2023/06/17 01:12:50;;;;;;;20.90;18.90;;;;;;;13.75;82.63;96262.80;112176;1243;66305;-87
2023/06/17 01:15:25;;;;;;;21.00;18.90;;;;;;;13.86;82.75;96262.23;112212;1242;22509;-87
2023/06/17 01:17:55;;;;;;;21.30;19.30;;;;;;;13.95;82.54;96264.77;112215;1239;22504;-87
2023/06/17 01:20:28;;;;;;;21.50;19.50;;;;;;;14.01;82.47;96262.10;112204;1242;22504;-87
2023/06/17 01:22:59;;;;;;;22.00;19.90;;;;;;;14.06;82.48;96263.88;112159;1242;63982;-87
2023/06/17 01:25:31;;;;;;;22.80;20.60;;;;;;;14.10;82.33;96264.37;112221;1242;23643;-87
2023/06/17 01:28:10;;;;;;;21.20;19.30;;;;;;;14.13;82.18;96266.85;112200;1243;22599;-87
2023/06/17 01:30:44;;;;;;;24.50;20.70;;;;;;;14.12;82.05;96267.36;112207;1242;25241;-87
2023/06/17 01:33:14;;;;;;;20.40;18.60;;;;;;;14.13;81.98;96263.65;110744;1243;1871741;-87
2023/06/17 01:35:59;;;;;;;21.40;19.30;;;;;;;14.07;81.76;96260.71;112216;1242;22502;-87
2023/06/17 01:38:36;;;;;;;21.80;19.80;;;;;;;13.99;81.64;96263.52;112230;1239;22536;-87
2023/06/17 01:41:16;;;;;;;20.40;18.30;;;;;;;13.86;81.71;96262.92;112230;1239;25275;-87
2023/06/17 01:43:46;;;;;;;21.50;19.10;;;;;;;13.74;81.75;96265.34;112169;1242;49518;-87
2023/06/17 01:46:16;;;;;;;20.80;18.80;;;;;;;13.64;82.08;96269.46;112222;1239;22548;-87
2023/06/17 01:48:45;;;;;;;20.70;18.70;;;;;;;13.61;82.45;96272.48;112219;1242;22516;-87
2023/06/17 01:51:16;;;;;;;18.10;16.40;;;;;;;13.57;82.72;96275.89;112279;1241;22521;-88
2023/06/17 01:53:46;;;;;;;18.60;16.80;;;;;;;13.53;82.70;96273.91;112199;1243;106074;-87
2023/06/17 01:56:18;;;;;;;17.90;16.10;;;;;;;13.47;82.88;96272.87;112227;1242;25468;-87
2023/06/17 01:58:47;;;;;;;19.50;17.60;;;;;;;13.44;83.10;96273.30;112217;1242;22519;-87
2023/06/17 02:01:18;;;;;;;18.10;16.30;;;;;;;13.50;83.35;96271.64;112238;1243;22503;-87
2023/06/17 02:03:52;;;;;;;19.20;17.40;;;;;;;13.57;83.25;96273.13;112182;1243;51346;-87
2023/06/17 02:06:25;;;;;;;18.20;16.40;;;;;;;13.64;83.18;96271.65;112225;1243;22506;-87
2023/06/17 02:08:55;;;;;;;18.10;16.40;;;;;;;13.70;83.12;96272.00;112222;1242;25199;-87
2023/06/17 02:11:27;;;;;;;18.60;16.80;;;;;;;13.73;82.78;96277.94;112232;1243;22547;-87
2023/06/17 02:13:58;;;;;;;18.70;16.90;;;;;;;13.64;82.50;96279.39;112169;1243;60847;-87
2023/06/17 02:16:28;;;;;;;18.90;17.00;;;;;;;13.59;82.52;96276.89;112230;1242;22506;-87
2023/06/17 02:19:02;;;;;;;18.70;16.80;;;;;;;13.55;82.42;96278.07;112226;1239;22546;-87
2023/06/17 02:21:33;;;;;;;17.90;16.20;;;;;;;13.43;82.40;96275.39;112229;1243;22505;-87
2023/06/17 02:24:14;;;;;;;16.60;14.90;;;;;;;13.39;82.77;96276.34;112189;1243;54612;-87
2023/06/17 02:26:43;;;;;;;16.30;14.20;;;;;;;13.44;82.85;96277.93;112224;1243;23256;-87
2023/06/17 02:29:13;;;;;;;15.40;13.50;;;;;;;13.39;82.66;96278.84;112226;1242;22489;-87
2023/06/17 02:31:41;;;;;;;14.00;12.50;;;;;;;13.32;82.78;96274.22;112202;1243;25315;-87
2023/06/17 02:34:12;;;;;;;13.60;12.30;;;;;;;13.30;83.06;96271.86;112175;1243;58915;-87
2023/06/17 02:36:41;;;;;;;13.70;11.80;;;;;;;13.27;83.07;96269.95;112228;1243;24204;-88
2023/06/17 02:39:10;;;;;;;13.30;11.90;;;;;;;13.24;83.22;96266.00;112231;1243;23782;-88
2023/06/17 02:41:43;;;;;;;13.30;12.00;;;;;;;13.23;83.30;96263.42;112227;1243;22516;-88
2023/06/17 02:44:12;;;;;;;12.30;10.90;;;;;;;13.18;83.36;96267.67;112133;1239;76552;-87
2023/06/17 02:46:42;;;;;;;13.80;11.40;;;;;;;13.20;83.66;96268.95;112233;1243;23736;-87
2023/06/17 02:49:13;;;;;;;13.60;10.80;;;;;;;13.25;83.95;96272.80;112257;1239;22513;-88
2023/06/17 02:51:55;;;;;;;13.10;11.60;;;;;;;13.28;83.79;96273.04;112225;1243;22526;-88
2023/06/17 02:54:25;;;;;;;13.10;11.00;;;;;;;13.30;83.88;96273.84;112185;1242;40462;-87
2023/06/17 02:56:56;;;;;;;12.50;11.00;;;;;;;13.33;83.92;96274.91;112256;1239;22503;-87
2023/06/17 02:59:31;;;;;;;12.50;11.20;;;;;;;13.36;83.88;96280.66;112238;1242;22476;-88
2023/06/17 03:04:45;;;;;;;13.10;11.60;;;;;;;13.32;83.94;96275.06;112231;1242;22528;-88
2023/06/17 03:07:16;;;;;;;14.10;12.60;;;;;;;13.31;84.20;96275.03;112248;1242;22507;-88
2023/06/17 03:09:45;;;;;;;12.60;11.30;;;;;;;13.34;84.21;96277.23;112237;1243;22566;-88
2023/06/17 03:12:14;;;;;;;14.10;12.60;;;;;;;13.34;84.13;96278.05;112245;1243;24191;-88
2023/06/17 03:14:47;;;;;;;14.80;12.00;;;;;;;13.33;84.26;96275.79;112162;1242;80869;-88
2023/06/17 03:17:15;;;;;;;14.80;12.20;;;;;;;13.37;84.43;96278.92;112234;1243;23473;-87
2023/06/17 03:19:46;;;;;;;14.30;12.10;;;;;;;13.43;84.51;96277.90;112152;1243;26372;-88
2023/06/17 03:22:17;;;;;;;15.90;14.20;;;;;;;13.49;84.52;96278.42;112244;1239;22506;-87
2023/06/17 03:24:47;;;;;;;20.10;18.00;;;;;;;13.55;84.35;96284.05;112145;1242;25731;-88
2023/06/17 03:27:20;;;;;;;19.80;17.80;;;;;;;13.55;83.98;96280.36;112238;1242;23201;-89
2023/06/17 03:29:53;;;;;;;20.30;18.30;;;;;;;13.50;83.63;96281.39;112244;1243;22597;-87
2023/06/17 03:32:22;;;;;;;19.40;17.50;;;;;;;13.46;83.59;96283.30;112219;1242;31823;-88
2023/06/17 03:34:53;;;;;;;19.60;17.70;;;;;;;13.46;83.79;96285.17;112274;1243;22586;-88
2023/06/17 03:37:25;;;;;;;20.00;18.00;;;;;;;13.45;83.56;96281.95;112252;1242;22509;-88
2023/06/17 03:39:56;;;;;;;19.90;18.00;;;;;;;13.35;83.52;96283.19;112241;1241;22510;-88
2023/06/17 03:42:27;;;;;;;20.10;18.00;;;;;;;13.28;83.65;96284.91;112212;1240;48611;-87
2023/06/17 03:44:57;;;;;;;18.50;16.60;;;;;;;13.30;84.06;96279.22;112227;1242;22626;-88
2023/06/17 03:47:28;;;;;;;19.50;17.60;;;;;;;13.34;84.21;96276.92;112232;1242;22523;-88
2023/06/17 03:49:57;;;;;;;18.50;16.70;;;;;;;13.40;84.18;96273.41;112267;1242;22639;-88
2023/06/17 03:52:32;;;;;;;19.50;17.60;;;;;;;13.42;84.29;96272.45;112178;1240;69380;-88
2023/06/17 03:55:03;;;;;;;16.40;14.70;;;;;;;13.47;84.35;96267.39;112230;1243;24192;-87
2023/06/17 03:57:35;;;;;;;15.70;14.10;;;;;;;13.46;84.10;96268.60;112253;1243;24214;-88
2023/06/17 04:00:10;;;;;;;14.90;13.20;;;;;;;13.39;84.30;96269.58;112262;1239;22502;-88
2023/06/17 04:02:49;;;;;;;13.80;12.30;;;;;;;13.40;84.77;96270.30;112193;1243;47423;-89
2023/06/17 04:05:20;;;;;;;15.80;13.00;;;;;;;13.45;84.94;96271.33;112259;1243;22512;-88
2023/06/17 04:07:49;;;;;;;14.00;12.30;;;;;;;13.51;85.14;96274.69;112258;1239;23822;-88
2023/06/17 04:10:19;;;;;;;12.60;11.30;;;;;;;13.58;85.13;96276.54;112288;1243;24215;-88
2023/06/17 04:12:52;;;;;;;13.50;11.70;;;;;;;13.65;85.01;96274.45;112195;1243;67923;-88
2023/06/17 04:15:23;;;;;;;13.60;12.00;;;;;;;13.68;84.97;96278.30;112242;1242;22512;-88
2023/06/17 04:17:55;;;;;;;13.80;11.80;;;;;;;13.68;85.03;96278.33;112253;1242;22554;-88
2023/06/17 04:20:27;;;;;;;13.60;12.20;;;;;;;13.73;85.09;96283.58;112241;1242;25457;-88
2023/06/17 04:23:01;;;;;;;13.20;11.90;;;;;;;13.77;85.05;96286.66;112210;1243;44152;-87
2023/06/17 04:25:36;;;;;;;13.00;11.60;;;;;;;13.81;84.96;96289.30;112265;1243;24219;-87
2023/06/17 04:28:12;;;;;;;14.00;12.50;;;;;;;13.87;85.18;96289.77;112278;1242;22510;-88
2023/06/17 04:30:48;;;;;;;13.30;11.80;;;;;;;13.99;85.17;96288.34;112248;1243;22502;-87
2023/06/17 04:33:31;;;;;;;12.10;10.90;;;;;;;14.07;85.12;96288.11;112157;1243;121688;-87
2023/06/17 04:36:07;;;;;;;12.70;11.30;;;;;;;14.17;85.15;96285.33;112255;1243;22595;-88
2023/06/17 04:38:40;;;;;;;12.40;11.10;;;;;;;14.33;85.33;96287.84;112099;1243;22571;-87
2023/06/17 04:41:15;;;;;;;11.50;10.30;;;;;;;14.52;85.41;96287.52;112253;1241;22529;-87
2023/06/17 04:43:55;;;;;;;12.90;11.60;;;;;;;14.69;85.09;96285.59;112279;1243;57219;-87
2023/06/17 04:46:26;;;;;;;11.90;10.50;;;;;;;14.83;84.93;96283.78;112255;1243;23974;-87
2023/06/17 04:48:56;;;;;;;12.00;10.60;;;;;;;14.95;84.46;96284.58;112277;1243;22521;-87
2023/06/17 04:51:28;;;;;;;12.30;10.80;;;;;;;15.03;84.11;96290.44;112268;1243;22592;-87
2023/06/17 04:53:58;;;;;;;11.50;9.40;;;;;;;15.08;83.93;96290.45;112230;1243;43035;-88
2023/06/17 04:56:30;;;;;;;12.30;10.00;;;;;;;15.16;83.45;96292.10;112260;1243;24228;-88
2023/06/17 04:59:01;;;;;;;10.80;9.10;;;;;;;15.13;82.89;96294.15;112252;1243;26418;-87
2023/06/17 05:01:33;;;;;;;11.40;10.10;;;;;;;14.99;82.36;96294.38;112279;1241;22571;-87
2023/06/17 05:04:03;;;;;;;11.40;10.10;;;;;;;14.91;82.58;96297.16;112065;1243;49310;-88
2023/06/17 05:06:35;;;;;;;11.30;10.10;;;;;;;14.95;83.02;96298.33;112270;1239;22609;-88
2023/06/17 05:09:04;;;;;;;11.30;9.80;;;;;;;14.98;82.56;96303.80;112101;1243;214803;-88
2023/06/17 05:11:38;;;;;;;;;;;;;;;14.99;82.69;96309.41;112277;1243;22492;-88
2023/06/17 05:14:09;;;;;;;12.30;11.10;;;;;;;15.09;82.91;96314.23;112235;1243;36574;-88
2023/06/17 05:16:55;;;;;;;12.80;11.10;;;;;;;15.23;82.71;96319.89;112288;1243;22518;-87
2023/06/17 05:19:26;;;;;;;12.30;11.00;;;;;;;15.38;82.52;96316.70;112275;1243;22697;-88
2023/06/17 05:21:59;;;;;;;13.00;11.60;;;;;;;15.42;81.82;96318.64;112266;1243;22492;-88
2023/06/17 05:24:40;;;;;;;14.70;12.00;;;;;;;15.47;81.59;96322.56;112219;1243;67661;-88
2023/06/17 05:27:17;;;;;;;13.10;11.30;;;;;;;15.52;81.63;96322.41;112103;1243;22536;-88
2023/06/17 05:29:54;;;;;;;12.50;10.90;;;;;;;15.87;82.71;96325.53;112278;1239;22589;-88
2023/06/17 05:32:24;;;;;;;14.80;11.10;;;;;;;16.63;82.48;96324.67;112295;1241;22592;-88
2023/06/17 05:34:53;;;;;;;10.30;9.20;;;;;;;17.33;82.19;96314.31;112290;1243;22590;-88
2023/06/17 05:37:27;;;;;;;11.00;9.60;;;;;;;17.77;80.45;96312.12;112303;1239;22589;-88
2023/06/17 05:39:56;;;;;;;8.80;7.90;;;;;;;17.64;78.02;96313.43;112275;1243;25383;-88
2023/06/17 05:42:29;;;;;;;11.90;8.60;;;;;;;17.37;77.86;96316.82;112265;1241;53178;-88
2023/06/17 05:44:57;;;;;;;13.70;9.60;;;;;;;17.17;77.28;96313.43;112278;1243;23205;-88
2023/06/17 05:47:28;;;;;;;11.30;8.90;;;;;;;16.85;77.01;96317.83;112253;1243;22505;-88
2023/06/17 05:50:03;;;;;;;10.10;8.90;;;;;;;17.04;78.15;96317.23;112291;1242;22546;-88
2023/06/17 05:52:32;;;;;;;11.60;9.40;;;;;;;17.31;77.55;96313.55;112028;1243;52523;-89
2023/06/17 05:55:00;;;;;;;11.20;9.20;;;;;;;17.14;76.37;96317.99;112289;1242;22947;-87
2023/06/17 05:57:33;;;;;;;10.60;9.20;;;;;;;16.94;76.67;96322.14;112284;1243;22506;-88
2023/06/17 06:00:06;;;;;;;10.70;9.60;;;;;;;17.01;76.84;96320.09;112263;1239;24359;-89
2023/06/17 06:02:36;;;;;;;10.90;9.70;;;;;;;17.07;77.39;96323.38;112012;1243;70726;-87
2023/06/17 06:05:10;;;;;;;11.20;9.70;;;;;;;17.78;78.43;96319.48;112278;1241;22630;-88
2023/06/17 06:07:43;;;;;;;10.50;9.40;;;;;;;18.09;76.26;96321.39;112271;1243;22514;-89
2023/06/17 06:10:13;;;;;;;11.70;9.60;;;;;;;17.93;75.09;96320.55;112262;1243;22516;-88
2023/06/17 06:12:44;;;;;;;11.20;9.80;;;;;;;17.72;75.00;96325.27;112233;1243;64821;-88
2023/06/17 06:15:18;;;;;;;9.00;8.00;;;;;;;17.61;75.30;96328.23;112288;1242;23178;-88
2023/06/17 06:17:49;;;;;;;12.00;9.30;;;;;;;17.54;75.43;96327.30;112289;1243;22609;-89
2023/06/17 06:20:18;;;;;;;11.00;9.70;;;;;;;17.60;75.56;96327.66;112298;1243;22512;-88
2023/06/17 06:22:50;;;;;;;12.70;10.90;;;;;;;17.76;76.22;96330.67;112204;1243;94125;-88
2023/06/17 06:25:19;;;;;;;11.00;9.80;;;;;;;18.41;76.17;96337.52;112262;1242;22518;-88
2023/06/17 06:27:50;;;;;;;11.60;10.20;;;;;;;18.30;73.57;96337.95;112276;1243;22519;-88
2023/06/17 06:30:20;;;;;;;12.70;11.40;;;;;;;17.99;73.11;96334.23;112278;1242;22574;-88
2023/06/17 06:32:49;;;;;;;12.40;10.80;;;;;;;17.93;73.72;96330.58;112268;1243;43968;-88
2023/06/17 06:35:20;;;;;;;13.50;10.50;;;;;;;18.11;73.38;96332.88;112274;1242;24192;-88
2023/06/17 06:37:50;;;;;;;12.10;10.80;;;;;;;18.19;72.86;96334.91;112282;1243;22546;-88
2023/06/17 06:40:23;;;;;;;11.50;9.70;;;;;;;18.04;72.18;96333.17;112297;1239;22517;-88
2023/06/17 06:42:55;;;;;;;11.80;10.60;;;;;;;17.79;72.09;96329.90;112241;1242;44009;-88
2023/06/17 06:45:27;;;;;;;11.60;10.40;;;;;;;17.58;72.20;96332.51;112256;1243;22588;-89
2023/06/17 06:47:56;;;;;;;12.60;10.90;;;;;;;17.35;72.26;96332.96;112267;1242;24223;-88
2023/06/17 06:50:29;;;;;;;11.30;10.20;;;;;;;17.13;72.83;96330.98;112287;1243;22518;-89
2023/06/17 06:53:01;;;;;;;11.80;10.50;;;;;;;16.98;73.08;96337.83;112251;1243;60192;-88
2023/06/17 06:55:33;;;;;;;11.80;10.60;;;;;;;16.88;73.51;96337.20;112275;1243;26458;-88
2023/06/17 06:58:04;;;;;;;12.80;11.20;;;;;;;16.83;73.70;96334.96;112294;1243;22507;-89
2023/06/17 07:00:33;;;;;;;13.20;10.20;;;;;;;16.84;74.19;96333.17;112281;1243;22673;-88
2023/06/17 07:03:10;;;;;;;12.30;11.00;;;;;;;16.78;74.07;96335.29;112047;1242;59157;-88
2023/06/17 07:05:45;;;;;;;12.80;11.30;;;;;;;16.75;74.67;96331.43;112315;1242;22627;-88
2023/06/17 07:08:28;;;;;;;11.20;9.90;;;;;;;16.86;75.05;96326.20;112277;1228;22506;-89
2023/06/17 07:10:59;;;;;;;13.20;11.80;;;;;;;17.10;75.12;96326.09;112292;1238;26465;-89
2023/06/17 07:13:30;;;;;;;12.50;11.30;;;;;;;17.35;74.93;96321.86;112334;1243;54868;-89
2023/06/17 07:15:58;;;;;;;13.00;11.20;;;;;;;17.53;74.67;96327.67;112308;1242;23734;-88
2023/06/17 07:18:30;;;;;;;11.90;10.50;;;;;;;17.64;74.30;96328.80;112293;1243;23363;-88
2023/06/17 07:21:04;;;;;;;13.20;11.50;;;;;;;17.61;73.90;96328.77;112331;1243;22534;-88
2023/06/17 07:23:38;;;;;;;13.10;11.80;;;;;;;17.46;73.80;96327.66;112262;1242;54171;-88
2023/06/17 07:26:10;;;;;;;14.30;12.90;;;;;;;17.45;74.18;96324.34;112312;1243;22486;-88
2023/06/17 07:28:41;;;;;;;13.40;12.10;;;;;;;17.44;74.13;96328.02;112297;1243;22603;-87
2023/06/17 07:31:13;;;;;;;13.80;12.40;;;;;;;17.45;74.22;96329.17;112313;1239;26515;-88
2023/06/17 07:33:44;;;;;;;15.70;14.10;;;;;;;17.44;74.14;96330.23;112256;1242;67511;-88
2023/06/17 07:36:13;;;;;;;15.50;13.90;;;;;;;17.50;74.39;96331.07;112324;1243;22503;-88
2023/06/17 07:38:45;;;;;;;15.70;14.20;;;;;;;17.45;73.99;96333.13;112308;1242;22502;-88
2023/06/17 07:41:16;;;;;;;17.80;16.00;;;;;;;17.39;73.80;96335.83;112311;1243;22517;-89
2023/06/17 07:43:47;;;;;;;18.00;16.10;;;;;;;17.27;73.42;96334.84;112217;1243;67063;-89
2023/06/17 07:46:16;;;;;;;16.80;15.10;;;;;;;17.26;73.57;96330.82;112306;1239;22531;-89
2023/06/17 07:48:44;;;;;;;;;;;;;;;17.29;73.89;96333.66;112323;1242;22487;-88
2023/06/17 07:51:13;;;;;;;15.50;14.00;;;;;;;17.33;73.77;96334.91;112336;1242;22517;-90
2023/06/17 07:53:42;;;;;;;19.30;17.40;;;;;;;17.32;73.36;96334.10;112261;1242;57080;-88
2023/06/17 07:56:11;;;;;;;17.00;15.30;;;;;;;17.31;73.45;96335.59;112303;1243;25436;-88
2023/06/17 07:58:41;;;;;;;16.50;14.70;;;;;;;17.36;73.50;96336.48;112335;1243;23916;-88
2023/06/17 08:01:09;;;;;;;;;;;;;;;17.29;73.00;96336.21;112324;1243;22495;-88
2023/06/17 08:03:39;;;;;;;17.20;15.50;;;;;;;17.20;73.16;96332.52;112213;1242;123557;-90
2023/06/17 08:06:13;;;;;;;16.40;14.70;;;;;;;17.11;72.90;96338.23;112322;1243;22581;-88
2023/06/17 08:08:42;;;;;;;16.30;13.80;;;;;;;17.04;72.93;96337.43;112340;1238;24341;-88
2023/06/17 08:11:10;;;;;;;13.90;12.50;;;;;;;17.05;73.28;96340.08;112335;1242;22483;-88
2023/06/17 08:13:42;;;;;;;14.80;12.50;;;;;;;17.09;73.40;96337.95;112299;1242;60186;-88
2023/06/17 08:16:15;;;;;;;14.40;12.80;;;;;;;17.19;73.55;96337.85;112303;1242;22522;-89
2023/06/17 08:18:44;;;;;;;14.10;12.10;;;;;;;17.29;73.24;96330.52;112324;1243;22707;-88
2023/06/17 08:21:13;;;;;;;13.10;10.90;;;;;;;17.37;73.19;96332.35;112336;1227;22471;-88
2023/06/17 08:23:42;;;;;;;12.70;11.30;;;;;;;17.48;73.25;96332.38;112289;1243;48155;-88
2023/06/17 08:26:13;;;;;;;13.70;11.50;;;;;;;17.64;73.19;96330.32;112325;1243;22505;-88
2023/06/17 08:28:45;;;;;;;12.20;11.00;;;;;;;17.89;73.37;96333.45;112292;1243;22567;-88
2023/06/17 08:31:14;;;;;;;13.70;12.30;;;;;;;18.01;73.03;96331.34;112317;1243;22510;-88
2023/06/17 08:33:45;;;;;;;12.50;11.10;;;;;;;18.03;72.68;96335.48;112279;1243;31391;-88
2023/06/17 08:36:14;;;;;;;12.60;10.80;;;;;;;18.02;72.51;96332.83;112317;1242;24318;-88
2023/06/17 08:38:43;;;;;;;11.00;10.00;;;;;;;18.00;72.13;96336.96;112309;1242;25364;-89
2023/06/17 08:41:14;;;;;;;11.80;10.60;;;;;;;17.94;71.84;96331.84;112333;1243;22561;-88
2023/06/17 08:43:45;;;;;;;12.70;10.40;;;;;;;17.91;71.90;96329.09;112299;1227;51374;-88
2023/06/17 08:46:15;;;;;;;11.50;9.70;;;;;;;17.91;71.97;96333.23;112290;1242;22500;-88
2023/06/17 08:48:50;;;;;;;11.40;9.40;;;;;;;17.91;71.74;96338.43;112323;1243;22509;-88
2023/06/17 08:51:22;;;;;;;12.00;10.30;;;;;;;18.00;72.41;96337.52;112383;1242;23088;-89
2023/06/17 08:53:52;;;;;;;10.70;9.60;;;;;;;18.12;72.43;96338.36;112277;1241;47660;-88
2023/06/17 08:56:24;;;;;;;10.70;9.60;;;;;;;18.19;72.19;96341.29;112307;1242;22550;-89
2023/06/17 08:58:55;;;;;;;11.60;9.30;;;;;;;18.36;72.79;96337.98;112327;1242;22528;-88
2023/06/17 09:01:29;;;;;;;12.70;9.10;;;;;;;18.61;72.07;96344.72;112305;1241;22503;-88
2023/06/17 09:03:59;;;;;;;11.40;8.70;;;;;;;18.76;71.12;96339.36;112302;1243;48905;-88
2023/06/17 09:06:29;;;;;;;10.10;8.10;;;;;;;18.78;71.05;96343.86;112329;1242;25225;-89
2023/06/17 09:08:59;;;;;;;11.80;9.00;;;;;;;18.79;70.96;96342.83;112339;1242;22534;-89
2023/06/17 09:11:30;;;;;;;10.40;8.60;;;;;;;18.88;71.10;96342.19;112337;1243;22542;-89
2023/06/17 09:14:01;;;;;;;10.80;9.30;;;;;;;18.96;70.49;96343.48;112295;1243;41195;-89
2023/06/17 09:16:34;;;;;;;9.00;7.30;;;;;;;18.96;69.66;96341.95;112311;1243;22524;-89
2023/06/17 09:19:06;;;;;;;9.80;7.20;;;;;;;18.89;68.64;96343.20;112351;1243;22514;-92
2023/06/17 09:21:36;;;;;;;9.80;8.10;;;;;;;18.76;67.92;96346.72;112339;1243;25264;-89
2023/06/17 09:24:07;;;;;;;11.20;8.80;;;;;;;18.66;68.28;96348.80;112311;1242;39543;-89
2023/06/17 09:26:44;;;;;;;11.00;8.50;;;;;;;18.63;68.41;96346.91;112328;1242;22554;-90
2023/06/17 09:29:14;;;;;;;10.40;8.80;;;;;;;18.62;68.88;96347.48;112319;1241;22493;-89
2023/06/17 09:31:52;;;;;;;11.40;8.50;;;;;;;18.63;68.83;96347.86;112335;1243;22530;-90
2023/06/17 09:34:21;;;;;;;11.30;8.30;;;;;;;18.57;68.29;96345.25;110893;1243;1865596;-89
2023/06/17 09:37:00;;;;;;;10.00;8.50;;;;;;;18.49;68.20;96345.16;112332;1242;22491;-88
2023/06/17 09:39:33;;;;;;;11.00;8.80;;;;;;;18.42;68.06;96346.39;112331;1242;22520;-88
2023/06/17 09:42:09;;;;;;;11.20;8.50;;;;;;;18.42;68.38;96345.77;112362;1242;22527;-90
2023/06/17 09:44:38;;;;;;;9.50;8.20;;;;;;;18.44;68.55;96351.11;112297;1243;50545;-89
2023/06/17 09:47:11;;;;;;;12.00;8.90;;;;;;;18.58;69.15;96348.20;112329;1242;25579;-90
2023/06/17 09:49:43;;;;;;;10.80;8.40;;;;;;;18.78;68.80;96343.56;112345;1242;22541;-89
2023/06/17 09:52:16;;;;;;;10.90;8.30;;;;;;;18.93;68.58;96339.33;112361;1242;22492;-90
2023/06/17 09:54:47;;;;;;;9.60;8.10;;;;;;;19.04;68.13;96339.98;112282;1242;57739;-88
2023/06/17 09:57:20;;;;;;;9.20;7.50;;;;;;;19.03;68.13;96339.27;112330;1242;24197;-89
2023/06/17 09:59:54;;;;;;;9.60;7.50;;;;;;;19.08;67.91;96337.92;112321;1242;22511;-89
2023/06/17 10:02:28;;;;;;;8.50;7.10;;;;;;;19.15;68.15;96338.29;112318;1243;22533;-89
2023/06/17 10:05:00;;;;;;;8.10;6.50;;;;;;;19.21;67.24;96336.01;112293;1242;64103;-88
2023/06/17 10:07:31;;;;;;;9.40;6.60;;;;;;;19.27;67.48;96333.66;112352;1242;22550;-89
2023/06/17 10:10:02;;;;;;;10.10;7.20;;;;;;;19.47;67.77;96342.83;112308;1242;23066;-89
2023/06/17 10:12:33;;;;;;;9.30;7.90;;;;;;;19.68;67.74;96341.95;112318;1242;22837;-89
2023/06/17 10:15:08;;;;;;;8.70;6.40;;;;;;;19.83;67.69;96333.15;112339;1242;22647;-88
2023/06/17 10:17:42;;;;;;;7.60;5.50;;;;;;;19.98;67.60;96333.21;112317;1242;25354;-89
2023/06/17 10:20:13;;;;;;;9.10;7.30;;;;;;;19.90;64.54;96334.93;112367;1242;22509;-90
2023/06/17 10:22:46;;;;;;;9.30;6.90;;;;;;;19.72;64.17;96338.55;112250;1242;71012;-89
2023/06/17 10:25:16;;;;;;;8.90;6.80;;;;;;;19.68;64.61;96339.18;112322;1242;25375;-89
2023/06/17 10:27:49;;;;;;;9.50;7.60;;;;;;;19.78;65.26;96338.45;112332;1242;22515;-89
2023/06/17 10:30:30;;;;;;;10.90;7.40;;;;;;;19.94;65.58;96338.12;112343;1243;26435;-88
2023/06/17 10:33:01;;;;;;;8.40;6.90;;;;;;;20.03;65.36;96329.52;112276;1242;38440;-90
2023/06/17 10:35:44;;;;;;;10.60;7.90;;;;;;;19.91;64.23;96327.52;112317;1242;22504;-90
2023/06/17 10:38:28;;;;;;;9.30;7.60;;;;;;;19.76;64.36;96333.20;112395;1239;23253;-92
2023/06/17 10:41:01;;;;;;;9.60;8.00;;;;;;;19.74;64.21;96332.77;112361;1242;26392;-90
2023/06/17 10:43:36;;;;;;;9.40;7.80;;;;;;;19.81;64.17;96334.39;112283;1242;38678;-89
2023/06/17 10:46:09;;;;;;;11.00;8.10;;;;;;;19.91;64.37;96328.42;112311;1242;25332;-89
2023/06/17 10:48:38;;;;;;;9.20;7.60;;;;;;;20.02;64.70;96325.27;112346;1242;22629;-90
2023/06/17 10:51:14;;;;;;;7.70;6.90;;;;;;;20.21;64.57;96328.49;112308;1242;22517;-89
2023/06/17 10:53:50;;;;;;;8.00;5.90;;;;;;;20.39;63.84;96330.56;112277;1242;43903;-90
2023/06/17 10:56:21;;;;;;;7.40;6.10;;;;;;;20.44;62.58;96334.11;112313;1242;22519;-90
2023/06/17 10:58:51;;;;;;;7.60;6.20;;;;;;;20.40;61.71;96330.29;112335;1242;22506;-90
2023/06/17 11:01:20;;;;;;;8.50;6.50;;;;;;;20.25;60.90;96323.20;112319;1243;22537;-89
2023/06/17 11:03:49;;;;;;;7.80;7.00;;;;;;;20.27;61.60;96324.41;112324;1238;48612;-89
2023/06/17 11:06:19;;;;;;;7.80;6.90;;;;;;;20.45;61.84;96327.95;112347;1243;22506;-91
2023/06/17 11:08:48;;;;;;;8.80;6.90;;;;;;;20.57;60.99;96329.70;112307;1242;22509;-89
2023/06/17 11:11:19;;;;;;;8.70;7.10;;;;;;;20.67;60.99;96326.64;112343;1243;22611;-90
2023/06/17 11:13:51;;;;;;;8.20;6.30;;;;;;;20.77;61.39;96326.33;112321;1242;37814;-89
2023/06/17 11:16:20;;;;;;;8.70;6.40;;;;;;;20.93;60.83;96321.13;112308;1242;22798;-89
2023/06/17 11:18:50;;;;;;;7.40;6.40;;;;;;;21.05;60.16;96320.99;112312;1241;22739;-89
2023/06/17 11:21:20;;;;;;;;;;;;;;;21.10;59.10;96316.02;112312;1242;22486;-89
2023/06/17 11:23:51;;;;;;;8.10;6.20;;;;;;;21.19;59.85;96314.15;112254;1242;47293;-89
2023/06/17 11:26:24;;;;;;;8.90;6.50;;;;;;;21.32;59.94;96314.83;112287;1243;25267;-90
2023/06/17 11:28:53;;;;;;;9.50;7.00;;;;;;;21.34;58.14;96311.23;112323;1242;24501;-89
2023/06/17 11:31:25;;;;;;;9.10;6.60;;;;;;;21.31;58.27;96313.42;112312;1242;22487;-90
2023/06/17 11:33:59;;;;;;;8.10;6.00;;;;;;;21.40;58.32;96315.12;112274;1242;64224;-89
2023/06/17 11:36:31;;;;;;;8.40;6.50;;;;;;;21.53;58.12;96309.91;112306;1239;22625;-89
2023/06/17 11:39:02;;;;;;;8.60;6.40;;;;;;;21.61;58.03;96304.98;112317;1238;22832;-89